sensor_id;sensor_type;location;lat;lon;timestamp;P1;durP1;ratioP1;P2;durP2;ratioP2
11998;SDS011;40817;51.520;9.954;2023-04-25T00:01:49;7.32;;;3.13;;
11998;SDS011;40817;51.520;9.954;2023-04-25T00:04:17;8.55;;;3.00;;
11998;SDS011;40817;51.520;9.954;2023-04-25T00:06:46;9.07;;;3.33;;
11998;SDS011;40817;51.520;9.954;2023-04-25T00:09:15;9.48;;;2.78;;
11998;SDS011;40817;51.520;9.954;2023-04-25T00:11:42;5.38;;;2.75;;
11998;SDS011;40817;51.520;9.954;2023-04-25T00:14:11;8.35;;;3.40;;
11998;SDS011;40817;51.520;9.954;2023-04-25T00:16:39;8.27;;;3.40;;
11998;SDS011;40817;51.520;9.954;2023-04-25T00:19:09;10.45;;;3.60;;
11998;SDS011;40817;51.520;9.954;2023-04-25T00:21:38;10.52;;;3.72;;
11998;SDS011;40817;51.520;9.954;2023-04-25T00:24:06;8.90;;;3.42;;
11998;SDS011;40817;51.520;9.954;2023-04-25T00:26:34;10.48;;;4.10;;
11998;SDS011;40817;51.520;9.954;2023-04-25T00:29:02;12.40;;;3.78;;
11998;SDS011;40817;51.520;9.954;2023-04-25T00:31:31;9.73;;;3.55;;
11998;SDS011;40817;51.520;9.954;2023-04-25T00:33:59;9.50;;;3.58;;
11998;SDS011;40817;51.520;9.954;2023-04-25T00:36:27;9.20;;;3.70;;
11998;SDS011;40817;51.520;9.954;2023-04-25T00:38:55;7.90;;;4.40;;
11998;SDS011;40817;51.520;9.954;2023-04-25T00:41:22;12.57;;;3.53;;
11998;SDS011;40817;51.520;9.954;2023-04-25T00:43:52;9.52;;;4.53;;
11998;SDS011;40817;51.520;9.954;2023-04-25T00:46:22;10.30;;;3.63;;
11998;SDS011;40817;51.520;9.954;2023-04-25T00:48:51;11.88;;;4.03;;
11998;SDS011;40817;51.520;9.954;2023-04-25T00:51:19;9.32;;;4.13;;
11998;SDS011;40817;51.520;9.954;2023-04-25T00:53:47;11.93;;;4.57;;
11998;SDS011;40817;51.520;9.954;2023-04-25T00:56:16;11.52;;;4.20;;
11998;SDS011;40817;51.520;9.954;2023-04-25T00:58:44;11.52;;;4.95;;
11998;SDS011;40817;51.520;9.954;2023-04-25T01:01:11;11.13;;;5.68;;
11998;SDS011;40817;51.520;9.954;2023-04-25T01:03:40;16.73;;;5.60;;
11998;SDS011;40817;51.520;9.954;2023-04-25T01:06:09;12.85;;;5.95;;
11998;SDS011;40817;51.520;9.954;2023-04-25T01:08:38;13.90;;;5.60;;
11998;SDS011;40817;51.520;9.954;2023-04-25T01:11:06;10.68;;;5.10;;
11998;SDS011;40817;51.520;9.954;2023-04-25T01:13:34;10.32;;;5.60;;
11998;SDS011;40817;51.520;9.954;2023-04-25T01:16:03;11.93;;;6.03;;
11998;SDS011;40817;51.520;9.954;2023-04-25T01:18:31;12.13;;;5.70;;
11998;SDS011;40817;51.520;9.954;2023-04-25T01:21:03;10.27;;;5.47;;
11998;SDS011;40817;51.520;9.954;2023-04-25T01:23:35;12.88;;;5.43;;
11998;SDS011;40817;51.520;9.954;2023-04-25T01:26:04;10.30;;;5.97;;
11998;SDS011;40817;51.520;9.954;2023-04-25T01:28:35;14.43;;;5.97;;
11998;SDS011;40817;51.520;9.954;2023-04-25T01:31:04;12.93;;;5.78;;
11998;SDS011;40817;51.520;9.954;2023-04-25T01:33:32;11.80;;;6.22;;
11998;SDS011;40817;51.520;9.954;2023-04-25T01:36:00;12.05;;;5.40;;
11998;SDS011;40817;51.520;9.954;2023-04-25T01:38:29;12.43;;;6.75;;
11998;SDS011;40817;51.520;9.954;2023-04-25T01:40:58;13.95;;;6.20;;
11998;SDS011;40817;51.520;9.954;2023-04-25T01:43:25;12.13;;;6.45;;
11998;SDS011;40817;51.520;9.954;2023-04-25T01:45:53;11.40;;;6.10;;
11998;SDS011;40817;51.520;9.954;2023-04-25T01:48:21;13.18;;;6.32;;
11998;SDS011;40817;51.520;9.954;2023-04-25T01:50:49;10.20;;;6.32;;
11998;SDS011;40817;51.520;9.954;2023-04-25T01:53:16;9.43;;;6.38;;
11998;SDS011;40817;51.520;9.954;2023-04-25T01:55:45;12.10;;;6.53;;
11998;SDS011;40817;51.520;9.954;2023-04-25T01:58:13;13.50;;;6.18;;
11998;SDS011;40817;51.520;9.954;2023-04-25T02:00:40;11.50;;;6.20;;
11998;SDS011;40817;51.520;9.954;2023-04-25T02:03:08;14.32;;;6.72;;
11998;SDS011;40817;51.520;9.954;2023-04-25T02:05:36;13.00;;;5.88;;
11998;SDS011;40817;51.520;9.954;2023-04-25T02:08:06;12.40;;;5.82;;
11998;SDS011;40817;51.520;9.954;2023-04-25T02:10:36;11.18;;;5.47;;
11998;SDS011;40817;51.520;9.954;2023-04-25T02:13:05;14.93;;;5.78;;
11998;SDS011;40817;51.520;9.954;2023-04-25T02:15:32;10.20;;;5.45;;
11998;SDS011;40817;51.520;9.954;2023-04-25T02:18:00;11.75;;;6.15;;
11998;SDS011;40817;51.520;9.954;2023-04-25T02:20:28;15.05;;;5.68;;
11998;SDS011;40817;51.520;9.954;2023-04-25T02:22:57;11.30;;;5.80;;
11998;SDS011;40817;51.520;9.954;2023-04-25T02:25:25;28.30;;;7.53;;
11998;SDS011;40817;51.520;9.954;2023-04-25T02:27:53;15.60;;;6.43;;
11998;SDS011;40817;51.520;9.954;2023-04-25T02:30:22;11.23;;;6.13;;
11998;SDS011;40817;51.520;9.954;2023-04-25T02:32:49;15.48;;;6.95;;
11998;SDS011;40817;51.520;9.954;2023-04-25T02:35:17;12.85;;;6.65;;
11998;SDS011;40817;51.520;9.954;2023-04-25T02:37:45;14.18;;;6.80;;
11998;SDS011;40817;51.520;9.954;2023-04-25T02:40:12;15.18;;;7.55;;
11998;SDS011;40817;51.520;9.954;2023-04-25T02:42:40;17.90;;;6.53;;
11998;SDS011;40817;51.520;9.954;2023-04-25T02:45:08;15.27;;;7.50;;
11998;SDS011;40817;51.520;9.954;2023-04-25T02:47:38;14.82;;;7.47;;
11998;SDS011;40817;51.520;9.954;2023-04-25T02:50:05;14.02;;;7.30;;
11998;SDS011;40817;51.520;9.954;2023-04-25T02:52:34;12.57;;;6.38;;
11998;SDS011;40817;51.520;9.954;2023-04-25T02:55:01;13.32;;;6.45;;
11998;SDS011;40817;51.520;9.954;2023-04-25T02:57:30;11.50;;;5.78;;
11998;SDS011;40817;51.520;9.954;2023-04-25T02:59:57;11.98;;;6.57;;
11998;SDS011;40817;51.520;9.954;2023-04-25T03:02:25;12.95;;;6.85;;
11998;SDS011;40817;51.520;9.954;2023-04-25T03:05:14;12.80;;;6.28;;
11998;SDS011;40817;51.520;9.954;2023-04-25T03:08:01;11.80;;;6.80;;
11998;SDS011;40817;51.520;9.954;2023-04-25T03:10:49;9.70;;;5.40;;
11998;SDS011;40817;51.520;9.954;2023-04-25T03:13:38;12.77;;;6.00;;
11998;SDS011;40817;51.520;9.954;2023-04-25T03:16:06;15.02;;;6.20;;
11998;SDS011;40817;51.520;9.954;2023-04-25T03:18:34;16.95;;;5.90;;
11998;SDS011;40817;51.520;9.954;2023-04-25T03:21:03;16.48;;;7.18;;
11998;SDS011;40817;51.520;9.954;2023-04-25T03:23:31;14.77;;;6.43;;
11998;SDS011;40817;51.520;9.954;2023-04-25T03:25:59;13.90;;;5.57;;
11998;SDS011;40817;51.520;9.954;2023-04-25T03:28:26;15.73;;;6.75;;
11998;SDS011;40817;51.520;9.954;2023-04-25T03:30:54;13.50;;;6.10;;
11998;SDS011;40817;51.520;9.954;2023-04-25T03:33:22;15.88;;;6.70;;
11998;SDS011;40817;51.520;9.954;2023-04-25T03:35:49;11.07;;;5.88;;
11998;SDS011;40817;51.520;9.954;2023-04-25T03:38:20;12.30;;;5.28;;
11998;SDS011;40817;51.520;9.954;2023-04-25T03:40:47;14.43;;;5.80;;
11998;SDS011;40817;51.520;9.954;2023-04-25T03:43:17;12.90;;;5.80;;
11998;SDS011;40817;51.520;9.954;2023-04-25T03:45:44;12.10;;;6.30;;
11998;SDS011;40817;51.520;9.954;2023-04-25T03:48:12;15.13;;;5.65;;
11998;SDS011;40817;51.520;9.954;2023-04-25T03:50:40;12.75;;;6.10;;
11998;SDS011;40817;51.520;9.954;2023-04-25T03:53:08;16.00;;;5.80;;
11998;SDS011;40817;51.520;9.954;2023-04-25T03:55:37;11.55;;;6.05;;
11998;SDS011;40817;51.520;9.954;2023-04-25T03:58:04;17.25;;;5.63;;
11998;SDS011;40817;51.520;9.954;2023-04-25T04:00:33;13.40;;;6.22;;
11998;SDS011;40817;51.520;9.954;2023-04-25T04:03:02;17.02;;;6.65;;
11998;SDS011;40817;51.520;9.954;2023-04-25T04:05:30;11.30;;;5.45;;
11998;SDS011;40817;51.520;9.954;2023-04-25T04:07:58;11.30;;;5.63;;
11998;SDS011;40817;51.520;9.954;2023-04-25T04:10:25;9.10;;;5.40;;
11998;SDS011;40817;51.520;9.954;2023-04-25T04:12:55;13.20;;;5.90;;
11998;SDS011;40817;51.520;9.954;2023-04-25T04:15:23;13.02;;;5.82;;
11998;SDS011;40817;51.520;9.954;2023-04-25T04:17:51;10.43;;;5.97;;
11998;SDS011;40817;51.520;9.954;2023-04-25T04:20:19;11.07;;;5.43;;
11998;SDS011;40817;51.520;9.954;2023-04-25T04:22:47;19.95;;;6.57;;
11998;SDS011;40817;51.520;9.954;2023-04-25T04:25:14;17.98;;;7.10;;
11998;SDS011;40817;51.520;9.954;2023-04-25T04:27:42;13.15;;;6.10;;
11998;SDS011;40817;51.520;9.954;2023-04-25T04:30:11;13.25;;;6.65;;
11998;SDS011;40817;51.520;9.954;2023-04-25T04:32:40;11.43;;;6.47;;
11998;SDS011;40817;51.520;9.954;2023-04-25T04:35:08;20.23;;;6.72;;
11998;SDS011;40817;51.520;9.954;2023-04-25T04:37:36;12.73;;;6.47;;
11998;SDS011;40817;51.520;9.954;2023-04-25T04:40:04;12.13;;;5.88;;
11998;SDS011;40817;51.520;9.954;2023-04-25T04:42:35;12.60;;;6.10;;
11998;SDS011;40817;51.520;9.954;2023-04-25T04:45:02;12.32;;;5.72;;
11998;SDS011;40817;51.520;9.954;2023-04-25T04:47:32;15.93;;;6.40;;
11998;SDS011;40817;51.520;9.954;2023-04-25T04:50:02;11.23;;;5.93;;
11998;SDS011;40817;51.520;9.954;2023-04-25T04:52:32;11.90;;;5.97;;
11998;SDS011;40817;51.520;9.954;2023-04-25T04:55:00;12.35;;;6.20;;
11998;SDS011;40817;51.520;9.954;2023-04-25T04:57:29;13.95;;;6.10;;
11998;SDS011;40817;51.520;9.954;2023-04-25T04:59:58;12.55;;;6.03;;
11998;SDS011;40817;51.520;9.954;2023-04-25T05:02:26;12.07;;;6.47;;
11998;SDS011;40817;51.520;9.954;2023-04-25T05:04:55;13.98;;;6.00;;
11998;SDS011;40817;51.520;9.954;2023-04-25T05:07:23;13.63;;;6.93;;
11998;SDS011;40817;51.520;9.954;2023-04-25T05:09:50;15.07;;;6.28;;
11998;SDS011;40817;51.520;9.954;2023-04-25T05:12:18;8.63;;;5.50;;
11998;SDS011;40817;51.520;9.954;2023-04-25T05:14:45;10.35;;;5.70;;
11998;SDS011;40817;51.520;9.954;2023-04-25T05:17:13;10.85;;;5.78;;
11998;SDS011;40817;51.520;9.954;2023-04-25T05:19:41;10.85;;;5.57;;
11998;SDS011;40817;51.520;9.954;2023-04-25T05:22:09;10.85;;;5.90;;
11998;SDS011;40817;51.520;9.954;2023-04-25T05:24:37;12.20;;;6.15;;
11998;SDS011;40817;51.520;9.954;2023-04-25T05:27:05;13.07;;;5.93;;
11998;SDS011;40817;51.520;9.954;2023-04-25T05:29:32;9.90;;;5.50;;
11998;SDS011;40817;51.520;9.954;2023-04-25T05:32:00;10.65;;;6.13;;
11998;SDS011;40817;51.520;9.954;2023-04-25T05:34:28;8.63;;;5.57;;
11998;SDS011;40817;51.520;9.954;2023-04-25T05:36:55;10.07;;;5.50;;
11998;SDS011;40817;51.520;9.954;2023-04-25T05:39:24;8.25;;;5.47;;
11998;SDS011;40817;51.520;9.954;2023-04-25T05:41:52;11.13;;;7.00;;
11998;SDS011;40817;51.520;9.954;2023-04-25T05:44:20;12.23;;;7.00;;
11998;SDS011;40817;51.520;9.954;2023-04-25T05:46:48;9.52;;;6.60;;
11998;SDS011;40817;51.520;9.954;2023-04-25T05:49:16;10.10;;;5.38;;
11998;SDS011;40817;51.520;9.954;2023-04-25T05:51:43;22.30;;;6.72;;
11998;SDS011;40817;51.520;9.954;2023-04-25T05:54:11;17.65;;;5.80;;
11998;SDS011;40817;51.520;9.954;2023-04-25T05:56:42;13.13;;;5.00;;
11998;SDS011;40817;51.520;9.954;2023-04-25T05:59:10;20.38;;;5.97;;
11998;SDS011;40817;51.520;9.954;2023-04-25T06:01:37;19.55;;;5.38;;
11998;SDS011;40817;51.520;9.954;2023-04-25T06:04:05;19.77;;;4.18;;
11998;SDS011;40817;51.520;9.954;2023-04-25T06:06:33;18.38;;;4.93;;
11998;SDS011;40817;51.520;9.954;2023-04-25T06:09:01;19.77;;;4.22;;
11998;SDS011;40817;51.520;9.954;2023-04-25T06:11:29;14.75;;;3.97;;
11998;SDS011;40817;51.520;9.954;2023-04-25T06:13:58;16.48;;;4.32;;
11998;SDS011;40817;51.520;9.954;2023-04-25T06:16:26;17.48;;;4.38;;
11998;SDS011;40817;51.520;9.954;2023-04-25T06:18:54;12.55;;;3.75;;
11998;SDS011;40817;51.520;9.954;2023-04-25T06:21:22;12.35;;;4.30;;
11998;SDS011;40817;51.520;9.954;2023-04-25T06:23:49;16.73;;;4.47;;
11998;SDS011;40817;51.520;9.954;2023-04-25T06:26:17;18.63;;;4.10;;
11998;SDS011;40817;51.520;9.954;2023-04-25T06:28:45;22.20;;;4.57;;
11998;SDS011;40817;51.520;9.954;2023-04-25T06:31:14;21.27;;;4.03;;
11998;SDS011;40817;51.520;9.954;2023-04-25T06:33:42;19.50;;;5.22;;
11998;SDS011;40817;51.520;9.954;2023-04-25T06:36:09;15.50;;;4.13;;
11998;SDS011;40817;51.520;9.954;2023-04-25T06:38:38;13.13;;;3.63;;
11998;SDS011;40817;51.520;9.954;2023-04-25T06:41:06;24.58;;;4.60;;
11998;SDS011;40817;51.520;9.954;2023-04-25T06:43:33;12.63;;;3.58;;
11998;SDS011;40817;51.520;9.954;2023-04-25T06:46:01;13.73;;;3.95;;
11998;SDS011;40817;51.520;9.954;2023-04-25T06:48:31;12.63;;;3.47;;
11998;SDS011;40817;51.520;9.954;2023-04-25T06:50:59;22.42;;;5.05;;
11998;SDS011;40817;51.520;9.954;2023-04-25T06:53:26;12.55;;;3.45;;
11998;SDS011;40817;51.520;9.954;2023-04-25T06:55:54;9.82;;;2.95;;
11998;SDS011;40817;51.520;9.954;2023-04-25T06:58:22;12.38;;;3.63;;
11998;SDS011;40817;51.520;9.954;2023-04-25T07:00:50;9.35;;;3.28;;
11998;SDS011;40817;51.520;9.954;2023-04-25T07:03:17;16.23;;;4.10;;
11998;SDS011;40817;51.520;9.954;2023-04-25T07:05:47;15.15;;;4.22;;
11998;SDS011;40817;51.520;9.954;2023-04-25T07:08:15;14.55;;;3.10;;
11998;SDS011;40817;51.520;9.954;2023-04-25T07:10:43;11.68;;;2.88;;
11998;SDS011;40817;51.520;9.954;2023-04-25T07:13:11;14.75;;;3.13;;
11998;SDS011;40817;51.520;9.954;2023-04-25T07:15:39;12.07;;;2.65;;
11998;SDS011;40817;51.520;9.954;2023-04-25T07:18:07;8.85;;;2.20;;
11998;SDS011;40817;51.520;9.954;2023-04-25T07:20:35;6.93;;;2.28;;
11998;SDS011;40817;51.520;9.954;2023-04-25T07:23:04;18.27;;;3.30;;
11998;SDS011;40817;51.520;9.954;2023-04-25T07:25:32;7.05;;;2.25;;
11998;SDS011;40817;51.520;9.954;2023-04-25T07:28:00;7.47;;;2.10;;
11998;SDS011;40817;51.520;9.954;2023-04-25T07:30:28;12.88;;;2.83;;
11998;SDS011;40817;51.520;9.954;2023-04-25T07:32:56;11.95;;;3.10;;
11998;SDS011;40817;51.520;9.954;2023-04-25T07:35:23;12.25;;;2.83;;
11998;SDS011;40817;51.520;9.954;2023-04-25T07:37:51;14.27;;;3.10;;
11998;SDS011;40817;51.520;9.954;2023-04-25T07:40:20;17.25;;;3.33;;
11998;SDS011;40817;51.520;9.954;2023-04-25T07:42:48;9.93;;;2.40;;
11998;SDS011;40817;51.520;9.954;2023-04-25T07:45:19;8.75;;;2.75;;
11998;SDS011;40817;51.520;9.954;2023-04-25T07:47:47;14.95;;;3.65;;
11998;SDS011;40817;51.520;9.954;2023-04-25T07:50:14;14.13;;;3.05;;
11998;SDS011;40817;51.520;9.954;2023-04-25T07:52:50;14.15;;;2.83;;
11998;SDS011;40817;51.520;9.954;2023-04-25T07:55:17;13.48;;;3.40;;
11998;SDS011;40817;51.520;9.954;2023-04-25T07:57:46;18.08;;;2.65;;
11998;SDS011;40817;51.520;9.954;2023-04-25T08:00:14;12.05;;;2.72;;
11998;SDS011;40817;51.520;9.954;2023-04-25T08:02:42;11.98;;;2.90;;
11998;SDS011;40817;51.520;9.954;2023-04-25T08:05:11;15.32;;;2.75;;
11998;SDS011;40817;51.520;9.954;2023-04-25T08:07:40;15.98;;;3.47;;
11998;SDS011;40817;51.520;9.954;2023-04-25T08:10:09;10.88;;;2.40;;
11998;SDS011;40817;51.520;9.954;2023-04-25T08:12:38;11.73;;;2.85;;
11998;SDS011;40817;51.520;9.954;2023-04-25T08:15:06;10.13;;;2.55;;
11998;SDS011;40817;51.520;9.954;2023-04-25T08:17:35;11.55;;;2.42;;
11998;SDS011;40817;51.520;9.954;2023-04-25T08:20:03;12.35;;;3.58;;
11998;SDS011;40817;51.520;9.954;2023-04-25T08:22:34;15.98;;;3.95;;
11998;SDS011;40817;51.520;9.954;2023-04-25T08:25:02;11.93;;;2.70;;
11998;SDS011;40817;51.520;9.954;2023-04-25T08:27:31;12.13;;;3.25;;
11998;SDS011;40817;51.520;9.954;2023-04-25T08:29:59;12.82;;;3.33;;
11998;SDS011;40817;51.520;9.954;2023-04-25T08:32:28;15.55;;;3.22;;
11998;SDS011;40817;51.520;9.954;2023-04-25T08:34:56;12.70;;;3.00;;
11998;SDS011;40817;51.520;9.954;2023-04-25T08:37:23;14.43;;;3.78;;
11998;SDS011;40817;51.520;9.954;2023-04-25T08:39:51;9.35;;;3.13;;
11998;SDS011;40817;51.520;9.954;2023-04-25T08:42:19;11.27;;;3.13;;
11998;SDS011;40817;51.520;9.954;2023-04-25T08:44:48;14.90;;;3.08;;
11998;SDS011;40817;51.520;9.954;2023-04-25T08:47:19;14.02;;;3.80;;
11998;SDS011;40817;51.520;9.954;2023-04-25T08:49:49;14.07;;;3.70;;
11998;SDS011;40817;51.520;9.954;2023-04-25T08:52:21;11.27;;;3.15;;
11998;SDS011;40817;51.520;9.954;2023-04-25T08:54:50;13.43;;;2.70;;
11998;SDS011;40817;51.520;9.954;2023-04-25T08:57:19;9.52;;;2.70;;
11998;SDS011;40817;51.520;9.954;2023-04-25T08:59:49;14.90;;;3.30;;
11998;SDS011;40817;51.520;9.954;2023-04-25T09:02:19;11.50;;;2.60;;
11998;SDS011;40817;51.520;9.954;2023-04-25T09:04:48;12.93;;;3.33;;
11998;SDS011;40817;51.520;9.954;2023-04-25T09:07:16;12.38;;;3.30;;
11998;SDS011;40817;51.520;9.954;2023-04-25T09:09:46;8.20;;;2.95;;
11998;SDS011;40817;51.520;9.954;2023-04-25T09:12:14;13.10;;;3.33;;
11998;SDS011;40817;51.520;9.954;2023-04-25T09:14:43;17.63;;;3.30;;
11998;SDS011;40817;51.520;9.954;2023-04-25T09:17:34;10.85;;;3.72;;
11998;SDS011;40817;51.520;9.954;2023-04-25T09:20:06;13.63;;;3.05;;
11998;SDS011;40817;51.520;9.954;2023-04-25T09:22:40;6.78;;;2.80;;
11998;SDS011;40817;51.520;9.954;2023-04-25T09:25:08;11.73;;;2.83;;
11998;SDS011;40817;51.520;9.954;2023-04-25T09:27:48;10.18;;;2.90;;
11998;SDS011;40817;51.520;9.954;2023-04-25T09:30:17;10.77;;;3.13;;
11998;SDS011;40817;51.520;9.954;2023-04-25T09:35:32;13.10;;;2.80;;
11998;SDS011;40817;51.520;9.954;2023-04-25T09:38:07;12.00;;;3.35;;
11998;SDS011;40817;51.520;9.954;2023-04-25T09:40:40;10.20;;;2.80;;
11998;SDS011;40817;51.520;9.954;2023-04-25T09:43:10;9.63;;;2.47;;
11998;SDS011;40817;51.520;9.954;2023-04-25T09:45:43;10.77;;;2.70;;
11998;SDS011;40817;51.520;9.954;2023-04-25T09:48:19;11.75;;;2.20;;
11998;SDS011;40817;51.520;9.954;2023-04-25T09:50:52;13.40;;;2.60;;
11998;SDS011;40817;51.520;9.954;2023-04-25T09:53:36;7.65;;;2.20;;
11998;SDS011;40817;51.520;9.954;2023-04-25T09:56:07;8.48;;;2.30;;
11998;SDS011;40817;51.520;9.954;2023-04-25T09:58:37;8.48;;;2.60;;
11998;SDS011;40817;51.520;9.954;2023-04-25T10:01:07;11.40;;;2.05;;
11998;SDS011;40817;51.520;9.954;2023-04-25T10:03:38;10.05;;;2.13;;
11998;SDS011;40817;51.520;9.954;2023-04-25T10:06:07;8.52;;;2.22;;
11998;SDS011;40817;51.520;9.954;2023-04-25T10:08:39;5.90;;;2.47;;
11998;SDS011;40817;51.520;9.954;2023-04-25T10:11:08;6.47;;;2.03;;
11998;SDS011;40817;51.520;9.954;2023-04-25T10:13:36;8.18;;;2.45;;
11998;SDS011;40817;51.520;9.954;2023-04-25T10:16:04;6.85;;;2.65;;
11998;SDS011;40817;51.520;9.954;2023-04-25T10:18:32;11.45;;;2.30;;
11998;SDS011;40817;51.520;9.954;2023-04-25T10:21:02;10.50;;;2.00;;
11998;SDS011;40817;51.520;9.954;2023-04-25T10:23:32;7.55;;;1.70;;
11998;SDS011;40817;51.520;9.954;2023-04-25T10:26:01;10.18;;;2.17;;
11998;SDS011;40817;51.520;9.954;2023-04-25T10:28:29;8.32;;;1.80;;
11998;SDS011;40817;51.520;9.954;2023-04-25T10:31:17;11.20;;;2.45;;
11998;SDS011;40817;51.520;9.954;2023-04-25T10:33:45;6.88;;;1.38;;
11998;SDS011;40817;51.520;9.954;2023-04-25T10:36:14;6.22;;;2.15;;
11998;SDS011;40817;51.520;9.954;2023-04-25T10:38:47;7.75;;;1.77;;
11998;SDS011;40817;51.520;9.954;2023-04-25T10:41:19;7.38;;;2.10;;
11998;SDS011;40817;51.520;9.954;2023-04-25T10:43:48;5.95;;;1.92;;
11998;SDS011;40817;51.520;9.954;2023-04-25T10:46:26;9.40;;;2.10;;
11998;SDS011;40817;51.520;9.954;2023-04-25T10:48:56;9.38;;;2.00;;
11998;SDS011;40817;51.520;9.954;2023-04-25T10:51:28;9.45;;;1.63;;
11998;SDS011;40817;51.520;9.954;2023-04-25T10:53:58;7.78;;;2.00;;
11998;SDS011;40817;51.520;9.954;2023-04-25T10:56:30;3.88;;;1.40;;
11998;SDS011;40817;51.520;9.954;2023-04-25T10:59:04;6.60;;;1.45;;
11998;SDS011;40817;51.520;9.954;2023-04-25T11:01:38;8.23;;;1.40;;
11998;SDS011;40817;51.520;9.954;2023-04-25T11:04:19;4.97;;;1.52;;
11998;SDS011;40817;51.520;9.954;2023-04-25T11:06:55;7.93;;;2.17;;
11998;SDS011;40817;51.520;9.954;2023-04-25T11:09:38;6.50;;;1.67;;
11998;SDS011;40817;51.520;9.954;2023-04-25T11:12:07;8.38;;;2.30;;
11998;SDS011;40817;51.520;9.954;2023-04-25T11:14:37;10.75;;;1.98;;
11998;SDS011;40817;51.520;9.954;2023-04-25T11:17:04;4.88;;;1.60;;
11998;SDS011;40817;51.520;9.954;2023-04-25T11:19:32;6.32;;;1.92;;
11998;SDS011;40817;51.520;9.954;2023-04-25T11:22:02;5.47;;;1.60;;
11998;SDS011;40817;51.520;9.954;2023-04-25T11:24:31;3.75;;;1.38;;
11998;SDS011;40817;51.520;9.954;2023-04-25T11:27:02;5.82;;;1.90;;
11998;SDS011;40817;51.520;9.954;2023-04-25T11:29:32;6.57;;;2.17;;
11998;SDS011;40817;51.520;9.954;2023-04-25T11:32:02;8.60;;;1.38;;
11998;SDS011;40817;51.520;9.954;2023-04-25T11:34:30;6.05;;;1.88;;
11998;SDS011;40817;51.520;9.954;2023-04-25T11:37:01;7.63;;;2.00;;
11998;SDS011;40817;51.520;9.954;2023-04-25T11:39:31;8.00;;;2.00;;
11998;SDS011;40817;51.520;9.954;2023-04-25T11:41:59;6.05;;;1.63;;
11998;SDS011;40817;51.520;9.954;2023-04-25T11:44:26;7.80;;;2.10;;
11998;SDS011;40817;51.520;9.954;2023-04-25T11:46:56;5.25;;;1.92;;
11998;SDS011;40817;51.520;9.954;2023-04-25T11:49:24;5.55;;;1.70;;
11998;SDS011;40817;51.520;9.954;2023-04-25T11:51:56;5.13;;;1.70;;
11998;SDS011;40817;51.520;9.954;2023-04-25T11:54:25;5.40;;;1.83;;
11998;SDS011;40817;51.520;9.954;2023-04-25T11:56:54;5.97;;;1.50;;
11998;SDS011;40817;51.520;9.954;2023-04-25T11:59:23;5.53;;;1.67;;
11998;SDS011;40817;51.520;9.954;2023-04-25T12:01:52;4.35;;;1.58;;
11998;SDS011;40817;51.520;9.954;2023-04-25T12:04:21;6.45;;;1.80;;
11998;SDS011;40817;51.520;9.954;2023-04-25T12:06:51;8.63;;;1.67;;
11998;SDS011;40817;51.520;9.954;2023-04-25T12:09:21;8.82;;;2.38;;
11998;SDS011;40817;51.520;9.954;2023-04-25T12:11:59;7.35;;;1.80;;
11998;SDS011;40817;51.520;9.954;2023-04-25T12:14:32;5.00;;;1.75;;
11998;SDS011;40817;51.520;9.954;2023-04-25T12:17:02;4.88;;;1.58;;
11998;SDS011;40817;51.520;9.954;2023-04-25T12:19:33;5.72;;;1.40;;
11998;SDS011;40817;51.520;9.954;2023-04-25T12:22:18;10.93;;;1.98;;
11998;SDS011;40817;51.520;9.954;2023-04-25T12:24:49;5.80;;;1.50;;
11998;SDS011;40817;51.520;9.954;2023-04-25T12:27:18;6.15;;;2.10;;
11998;SDS011;40817;51.520;9.954;2023-04-25T12:29:52;6.45;;;1.90;;
11998;SDS011;40817;51.520;9.954;2023-04-25T12:32:22;4.43;;;1.33;;
11998;SDS011;40817;51.520;9.954;2023-04-25T12:34:50;6.72;;;1.58;;
11998;SDS011;40817;51.520;9.954;2023-04-25T12:37:18;5.40;;;2.05;;
11998;SDS011;40817;51.520;9.954;2023-04-25T12:39:46;6.10;;;1.48;;
11998;SDS011;40817;51.520;9.954;2023-04-25T12:42:16;7.28;;;1.65;;
11998;SDS011;40817;51.520;9.954;2023-04-25T12:44:44;4.97;;;1.45;;
11998;SDS011;40817;51.520;9.954;2023-04-25T12:47:12;5.07;;;1.50;;
11998;SDS011;40817;51.520;9.954;2023-04-25T12:49:40;8.02;;;2.05;;
11998;SDS011;40817;51.520;9.954;2023-04-25T12:52:08;5.82;;;1.60;;
11998;SDS011;40817;51.520;9.954;2023-04-25T12:54:36;6.93;;;2.08;;
11998;SDS011;40817;51.520;9.954;2023-04-25T12:57:05;7.82;;;2.00;;
11998;SDS011;40817;51.520;9.954;2023-04-25T12:59:33;5.00;;;1.67;;
11998;SDS011;40817;51.520;9.954;2023-04-25T13:02:01;4.75;;;1.40;;
11998;SDS011;40817;51.520;9.954;2023-04-25T13:04:29;4.72;;;1.65;;
11998;SDS011;40817;51.520;9.954;2023-04-25T13:06:57;4.85;;;1.42;;
11998;SDS011;40817;51.520;9.954;2023-04-25T13:09:25;4.30;;;1.30;;
11998;SDS011;40817;51.520;9.954;2023-04-25T13:11:53;4.85;;;1.65;;
11998;SDS011;40817;51.520;9.954;2023-04-25T13:14:22;5.55;;;2.28;;
11998;SDS011;40817;51.520;9.954;2023-04-25T13:16:50;5.72;;;1.45;;
11998;SDS011;40817;51.520;9.954;2023-04-25T13:19:19;3.83;;;1.70;;
11998;SDS011;40817;51.520;9.954;2023-04-25T13:21:47;8.88;;;2.10;;
11998;SDS011;40817;51.520;9.954;2023-04-25T13:24:15;5.85;;;1.50;;
11998;SDS011;40817;51.520;9.954;2023-04-25T13:26:43;7.28;;;1.65;;
11998;SDS011;40817;51.520;9.954;2023-04-25T13:29:11;3.47;;;1.40;;
11998;SDS011;40817;51.520;9.954;2023-04-25T13:31:40;3.45;;;1.55;;
11998;SDS011;40817;51.520;9.954;2023-04-25T13:34:08;3.13;;;1.40;;
11998;SDS011;40817;51.520;9.954;2023-04-25T13:36:37;8.35;;;1.73;;
11998;SDS011;40817;51.520;9.954;2023-04-25T13:39:05;3.45;;;1.48;;
11998;SDS011;40817;51.520;9.954;2023-04-25T13:41:33;4.47;;;1.30;;
11998;SDS011;40817;51.520;9.954;2023-04-25T13:44:01;3.53;;;1.05;;
11998;SDS011;40817;51.520;9.954;2023-04-25T13:46:29;5.07;;;2.03;;
11998;SDS011;40817;51.520;9.954;2023-04-25T13:48:58;6.28;;;1.85;;
11998;SDS011;40817;51.520;9.954;2023-04-25T13:51:26;3.67;;;1.48;;
11998;SDS011;40817;51.520;9.954;2023-04-25T13:53:54;6.13;;;1.80;;
11998;SDS011;40817;51.520;9.954;2023-04-25T13:56:21;5.03;;;1.30;;
11998;SDS011;40817;51.520;9.954;2023-04-25T13:58:49;3.40;;;1.20;;
11998;SDS011;40817;51.520;9.954;2023-04-25T14:01:17;6.35;;;1.20;;
11998;SDS011;40817;51.520;9.954;2023-04-25T14:03:46;7.82;;;1.48;;
11998;SDS011;40817;51.520;9.954;2023-04-25T14:06:15;5.53;;;1.20;;
11998;SDS011;40817;51.520;9.954;2023-04-25T14:08:48;4.18;;;1.40;;
11998;SDS011;40817;51.520;9.954;2023-04-25T14:11:16;6.90;;;1.60;;
11998;SDS011;40817;51.520;9.954;2023-04-25T14:13:44;3.05;;;1.40;;
11998;SDS011;40817;51.520;9.954;2023-04-25T14:16:12;3.35;;;0.95;;
11998;SDS011;40817;51.520;9.954;2023-04-25T14:18:40;3.08;;;1.23;;
11998;SDS011;40817;51.520;9.954;2023-04-25T14:21:08;5.50;;;1.30;;
11998;SDS011;40817;51.520;9.954;2023-04-25T14:23:37;5.88;;;1.75;;
11998;SDS011;40817;51.520;9.954;2023-04-25T14:26:05;5.10;;;1.17;;
11998;SDS011;40817;51.520;9.954;2023-04-25T14:28:37;4.22;;;1.40;;
11998;SDS011;40817;51.520;9.954;2023-04-25T14:31:04;7.78;;;1.88;;
11998;SDS011;40817;51.520;9.954;2023-04-25T14:33:32;3.88;;;1.20;;
11998;SDS011;40817;51.520;9.954;2023-04-25T14:36:00;4.35;;;1.30;;
11998;SDS011;40817;51.520;9.954;2023-04-25T14:38:28;3.45;;;1.15;;
11998;SDS011;40817;51.520;9.954;2023-04-25T14:40:57;4.07;;;1.25;;
11998;SDS011;40817;51.520;9.954;2023-04-25T14:43:25;4.97;;;1.17;;
11998;SDS011;40817;51.520;9.954;2023-04-25T14:45:53;3.95;;;1.10;;
11998;SDS011;40817;51.520;9.954;2023-04-25T14:48:21;4.40;;;1.30;;
11998;SDS011;40817;51.520;9.954;2023-04-25T14:50:49;3.33;;;1.02;;
11998;SDS011;40817;51.520;9.954;2023-04-25T14:53:16;4.30;;;1.20;;
11998;SDS011;40817;51.520;9.954;2023-04-25T14:55:44;7.75;;;1.15;;